Time;durP1;ratioP1;P1;durP2;ratioP2;P2;SDS_P1;SDS_P2;PMS_P1;PMS_P2;Temp;Humidity;BMP_temperature;BMP_pressure;BME280_temperature;BME280_humidity;BME280_pressure;Samples;Min_cycle;Max_cycle;Signal;HPM_P1;HPM_P2
2022/04/29 00:00:45;;;;;;;;;27.50;27.00;;;;;18.63;41.03;102098.66;2094499;28;48199;-55
2022/04/29 00:01:45;;;;;;;;;25.60;22.00;;;;;18.60;40.86;102107.72;2092465;28;47164;-55
2022/04/29 00:02:47;;;;;;;;;18.50;18.50;;;;;18.59;40.92;102100.59;2095618;28;47815;-54
2022/04/29 00:03:47;;;;;;;;;22.00;22.00;;;;;18.58;40.94;102100.63;2093042;28;47887;-56
2022/04/29 00:04:47;;;;;;;;;24.00;24.00;;;;;18.58;41.09;102096.13;2093480;28;47637;-54
2022/04/29 00:05:48;;;;;;;;;22.25;21.25;;;;;18.58;41.28;102097.94;2095873;28;47604;-55
2022/04/29 00:06:49;;;;;;;;;23.25;22.50;;;;;18.57;41.21;102098.88;2093428;28;48359;-56
2022/04/29 00:07:50;;;;;;;;;22.25;21.75;;;;;18.56;41.07;102097.13;2094987;28;47596;-56
2022/04/29 00:08:50;;;;;;;;;24.50;23.75;;;;;18.54;41.25;102098.03;2094659;28;48135;-55
2022/04/29 00:09:50;;;;;;;;;27.75;26.00;;;;;18.54;41.27;102097.16;2093508;28;47137;-56
2022/04/29 00:10:51;;;;;;;;;25.00;23.00;;;;;18.52;41.28;102097.19;2096032;28;47368;-56
2022/04/29 00:11:53;;;;;;;;;26.50;26.50;;;;;18.51;41.35;102103.50;2093678;28;48075;-56
2022/04/29 00:12:54;;;;;;;;;26.00;26.00;;;;;18.50;41.26;102096.38;2090762;28;47420;-55
2022/04/29 00:13:54;;;;;;;;;27.60;26.20;;;;;18.48;41.13;102095.56;2095813;28;47704;-56
2022/04/29 00:14:55;;;;;;;;;30.75;29.00;;;;;18.47;41.27;102096.50;2092954;28;46191;-56
2022/04/29 00:15:55;;;;;;;;;25.50;23.50;;;;;18.45;41.33;102092.97;2094864;28;47751;-55
2022/04/29 00:16:56;;;;;;;;;27.25;24.75;;;;;18.45;41.39;102097.47;2088086;28;47286;-56
2022/04/29 00:17:57;;;;;;;;;25.80;24.80;;;;;18.43;41.47;102094.84;2088094;28;47690;-55
2022/04/29 00:18:58;;;;;;;;;25.20;22.80;;;;;18.40;41.80;102091.34;2087540;28;47583;-55
2022/04/29 00:19:58;;;;;;;;;26.00;24.50;;;;;18.40;41.54;102089.53;2088152;28;46638;-55
2022/04/29 00:20:59;;;;;;;;;24.50;22.00;;;;;18.39;41.71;102092.28;2088024;28;47053;-56
2022/04/29 00:21:59;;;;;;;;;22.75;22.50;;;;;18.38;41.71;102083.34;2087678;28;47614;-56
2022/04/29 00:23:00;;;;;;;;;26.25;26.25;;;;;18.37;41.80;102083.38;2088008;28;47791;-56
2022/04/29 00:24:01;;;;;;;;;28.80;28.40;;;;;18.36;41.63;102078.94;2087653;28;47585;-54
2022/04/29 00:25:03;;;;;;;;;28.80;28.80;;;;;18.35;42.02;102086.13;2087436;28;47934;-57
2022/04/29 00:26:03;;;;;;;;;24.40;23.20;;;;;18.35;41.76;102080.75;2078787;28;47429;-55
2022/04/29 00:27:04;;;;;;;;;30.25;29.50;;;;;18.33;41.92;102074.56;2092575;28;47907;-55
2022/04/29 00:28:05;;;;;;;;;25.50;24.25;;;;;18.32;41.59;102075.50;2089929;28;48118;-52
2022/04/29 00:29:07;;;;;;;;;25.00;24.60;;;;;18.31;42.01;102071.03;2093950;28;48014;-52
2022/04/29 00:30:10;;;;;;;;;27.60;27.60;;;;;18.31;41.90;102078.22;2091803;28;47018;-55
2022/04/29 00:31:10;;;;;;;;;24.20;23.20;;;;;18.29;42.00;102075.56;2091241;28;47946;-55
2022/04/29 00:32:10;;;;;;;;;29.50;27.00;;;;;18.28;42.04;102075.63;2095772;28;47508;-55
2022/04/29 00:33:11;;;;;;;;;27.25;27.25;;;;;18.26;41.93;102070.28;2091104;28;47431;-56
2022/04/29 00:34:11;;;;;;;;;26.25;25.75;;;;;18.24;41.94;102070.34;2093043;28;47140;-55
2022/04/29 00:35:12;;;;;;;;;28.25;27.25;;;;;18.23;42.03;102065.91;2093953;28;47642;-56
2022/04/29 00:36:12;;;;;;;;;28.75;28.50;;;;;18.22;42.04;102065.97;2095585;28;47523;-56
2022/04/29 00:37:12;;;;;;;;;28.00;27.50;;;;;18.22;42.00;102063.28;2091967;28;47451;-56
2022/04/29 00:38:15;;;;;;;;;31.00;29.25;;;;;18.20;42.13;102068.69;2092209;28;47996;-54
2022/04/29 00:39:15;;;;;;;;;26.40;25.60;;;;;18.19;42.22;102066.06;2089743;28;48011;-57
2022/04/29 00:40:18;;;;;;;;;28.00;28.00;;;;;18.18;42.54;102070.56;2086735;28;47916;-57
2022/04/29 00:41:22;;;;;;;;;27.80;27.80;;;;;18.17;42.31;102067.94;2090620;28;48162;-57
2022/04/29 00:42:23;;;;;;;;;24.20;22.80;;;;;18.16;42.61;102063.44;2092372;28;47380;-57
2022/04/29 00:43:23;;;;;;;;;34.40;30.40;;;;;18.14;42.40;102060.81;2093007;28;48185;-57
2022/04/29 00:44:24;;;;;;;;;27.75;27.50;;;;;18.13;42.21;102061.75;2089850;28;47187;-57
2022/04/29 00:45:25;;;;;;;;;25.75;25.50;;;;;18.13;42.36;102055.50;2093714;28;47416;-55
2022/04/29 00:46:25;;;;;;;;;30.40;28.60;;;;;18.11;42.61;102058.22;2093236;28;47738;-56
2022/04/29 00:47:26;;;;;;;;;33.00;31.25;;;;;18.12;42.34;102062.69;2091255;28;47523;-55
2022/04/29 00:48:26;;;;;;;;;24.75;24.75;;;;;18.10;42.69;102061.84;2095372;28;47701;-56
2022/04/29 00:49:27;;;;;;;;;29.50;28.75;;;;;18.10;42.45;102060.97;2091791;28;47578;-56
2022/04/29 00:50:29;;;;;;;;;23.75;22.50;;;;;18.11;42.52;102060.03;2092201;28;48045;-56
2022/04/29 00:51:29;;;;;;;;;26.60;26.40;;;;;18.10;42.26;102058.28;2094962;28;47994;-55
2022/04/29 00:52:31;;;;;;;;;30.75;28.25;;;;;18.08;42.36;102055.66;2091252;28;47661;-55
2022/04/29 00:53:32;;;;;;;;;27.40;27.40;;;;;18.07;42.30;102053.03;2093149;28;47804;-55
2022/04/29 00:54:36;;;;;;;;;29.50;29.00;;;;;18.07;42.71;102053.91;2093506;28;47258;-55
2022/04/29 00:55:43;;;;;;;;;30.00;27.60;;;;;18.05;42.53;102062.94;2091231;28;47912;-55
2022/04/29 00:56:47;;;;;;;;;25.40;23.20;;;;;18.04;42.54;102051.31;2093585;28;47890;-56
2022/04/29 00:58:01;;;;;;;;;33.60;28.40;;;;;18.04;42.73;102058.47;2093721;28;47581;-56
2022/04/29 00:59:11;;;;;;;;;28.60;26.80;;;;;18.03;42.86;102059.41;2090953;28;47750;-54
2022/04/29 01:00:16;;;;;;;;;33.60;31.00;;;;;18.02;42.65;102054.94;2091256;28;47978;-53
2022/04/29 01:01:17;;;;;;;;;28.20;27.60;;;;;18.00;42.96;102055.00;2095635;28;48241;-54
2022/04/29 01:02:17;;;;;;;;;29.75;28.00;;;;;18.00;42.88;102048.75;2091227;28;48324;-54
2022/04/29 01:03:20;;;;;;;;;31.00;29.50;;;;;17.99;42.82;102053.25;2092990;28;45577;-55
2022/04/29 01:04:32;;;;;;;;;31.00;29.60;;;;;17.98;42.87;102053.28;2094734;28;47494;-53
2022/04/29 01:05:33;;;;;;;;;31.80;29.60;;;;;17.97;42.82;102054.22;2091433;28;47835;-56
2022/04/29 01:06:33;;;;;;;;;32.20;31.40;;;;;17.97;42.87;102049.72;2092260;28;48101;-55
2022/04/29 01:07:35;;;;;;;;;27.75;27.00;;;;;17.96;42.82;102053.34;2094990;28;47540;-56
2022/04/29 01:08:36;;;;;;;;;27.20;26.20;;;;;17.96;42.86;102044.41;2091731;28;47423;-56
2022/04/29 01:09:36;;;;;;;;;25.80;25.20;;;;;17.94;42.91;102037.28;2092832;28;47980;-56
2022/04/29 01:10:37;;;;;;;;;30.50;29.50;;;;;17.93;43.02;102040.91;2092353;28;47620;-56
2022/04/29 01:11:38;;;;;;;;;34.25;31.00;;;;;17.93;43.29;102035.53;2091495;28;47720;-56
2022/04/29 01:12:43;;;;;;;;;32.00;30.00;;;;;17.92;43.21;102035.59;2091979;28;47584;-55
2022/04/29 01:13:44;;;;;;;;;31.00;29.00;;;;;17.92;42.81;102041.84;2092522;28;48228;-54
2022/04/29 01:14:44;;;;;;;;;32.25;29.50;;;;;17.91;43.21;102040.06;2088346;28;47842;-55
2022/04/29 01:15:45;;;;;;;;;32.75;30.75;;;;;17.90;43.01;102035.59;2095752;28;47512;-54
2022/04/29 01:16:46;;;;;;;;;25.75;25.75;;;;;17.89;42.90;102038.34;2090727;28;47470;-55
2022/04/29 01:17:48;;;;;;;;;28.50;28.00;;;;;17.88;43.17;102036.59;2093983;28;47419;-55
2022/04/29 01:18:52;;;;;;;;;29.00;26.00;;;;;17.87;43.14;102041.06;2093237;28;47648;-56
2022/04/29 01:19:52;;;;;;;;;33.40;31.00;;;;;17.86;43.20;102030.38;2093563;28;48017;-55
2022/04/29 01:21:01;;;;;;;;;33.75;28.50;;;;;17.85;43.14;102032.19;2095582;28;47905;-56
2022/04/29 01:22:02;;;;;;;;;25.40;25.00;;;;;17.85;43.31;102040.25;2091690;28;47983;-54
2022/04/29 01:23:10;;;;;;;;;32.25;30.75;;;;;17.84;42.93;102033.13;2080247;28;47117;-56
2022/04/29 01:24:10;;;;;;;;;30.60;29.80;;;;;17.83;43.25;102031.38;2095064;28;47626;-55
2022/04/29 01:25:12;;;;;;;;;28.25;26.75;;;;;17.83;43.02;102034.06;2094020;28;47620;-55
2022/04/29 01:26:15;;;;;;;;;31.00;29.00;;;;;17.82;43.14;102039.47;2094362;28;47747;-55
2022/04/29 01:27:15;;;;;;;;;29.00;28.00;;;;;17.81;43.15;102027.84;2089106;28;47803;-55
2022/04/29 01:28:16;;;;;;;;;34.25;30.25;;;;;17.81;43.33;102027.84;2093890;28;47368;-55
2022/04/29 01:29:19;;;;;;;;;32.50;29.75;;;;;17.81;43.22;102033.22;2093810;28;47654;-55
2022/04/29 01:30:20;;;;;;;;;32.40;27.80;;;;;17.81;43.00;102027.84;2093102;28;47843;-54
2022/04/29 01:31:23;;;;;;;;;31.00;29.00;;;;;17.81;43.29;102026.97;2090821;28;47340;-57
2022/04/29 01:32:25;;;;;;;;;26.80;25.60;;;;;17.80;43.34;102025.22;2093004;28;47501;-55
2022/04/29 01:33:28;;;;;;;;;30.20;28.80;;;;;17.79;43.42;102028.84;2090739;28;48210;-58
2022/04/29 01:34:28;;;;;;;;;32.00;30.00;;;;;17.77;43.44;102028.84;2090203;28;47413;-57
2022/04/29 01:35:29;;;;;;;;;33.25;28.50;;;;;17.75;43.19;102024.47;2095367;28;47495;-55
2022/04/29 01:36:30;;;;;;;;;29.60;27.80;;;;;17.74;43.20;102023.59;2090696;28;47579;-56
2022/04/29 01:37:30;;;;;;;;;32.25;30.00;;;;;17.72;43.37;102022.75;2088963;28;47743;-55
2022/04/29 01:38:31;;;;;;;;;29.00;27.00;;;;;17.72;43.61;102028.13;2094267;28;46336;-55
2022/04/29 01:39:31;;;;;;;;;26.00;25.00;;;;;17.72;43.35;102027.25;2088802;28;47710;-55
2022/04/29 01:40:32;;;;;;;;;31.00;28.25;;;;;17.70;43.24;102023.72;2087064;28;47544;-54
2022/04/29 01:41:34;;;;;;;;;32.75;30.00;;;;;17.71;43.45;102033.53;2092057;28;47714;-54
2022/04/29 01:42:34;;;;;;;;;35.40;30.40;;;;;17.71;43.58;102030.88;2090162;28;47870;-54
2022/04/29 01:43:36;;;;;;;;;31.50;29.00;;;;;17.70;43.56;102029.97;2092011;28;47907;-55
2022/04/29 01:44:37;;;;;;;;;33.80;31.20;;;;;17.70;43.71;102024.63;2090449;28;48007;-54
2022/04/29 01:45:37;;;;;;;;;33.75;31.75;;;;;17.70;43.26;102024.63;2091263;27;47472;-55
2022/04/29 01:46:37;;;;;;;;;29.00;27.50;;;;;17.69;43.27;102028.22;2094246;28;48270;-55
2022/04/29 01:47:38;;;;;;;;;31.25;29.00;;;;;17.69;43.63;102021.97;2088059;28;47599;-55
2022/04/29 01:48:38;;;;;;;;;32.50;30.25;;;;;17.68;43.39;102025.56;2086817;28;47635;-54
2022/04/29 01:49:39;;;;;;;;;33.25;29.25;;;;;17.67;43.51;102024.69;2092525;28;47426;-54
2022/04/29 01:50:39;;;;;;;;;29.75;29.00;;;;;17.65;43.54;102022.00;2089605;28;47520;-55
2022/04/29 01:51:40;;;;;;;;;28.75;28.75;;;;;17.64;43.37;102031.00;2094488;28;47835;-56
2022/04/29 01:52:40;;;;;;;;;30.00;28.50;;;;;17.64;43.69;102027.44;2090750;28;47693;-55
2022/04/29 01:53:41;;;;;;;;;30.75;28.75;;;;;17.64;43.40;102030.13;2091766;28;47666;-55
2022/04/29 01:54:41;;;;;;;;;29.00;29.00;;;;;17.63;43.54;102023.88;2094019;28;47550;-56
2022/04/29 01:55:42;;;;;;;;;27.75;27.50;;;;;17.63;43.68;102029.25;2090315;28;47462;-56
2022/04/29 01:56:42;;;;;;;;;30.50;30.00;;;;;17.62;43.50;102026.59;2093453;28;47274;-56
2022/04/29 01:57:44;;;;;;;;;31.75;30.00;;;;;17.62;43.69;102026.59;2090894;28;47449;-56
2022/04/29 01:58:45;;;;;;;;;29.80;26.80;;;;;17.61;43.75;102024.84;2088985;28;48208;-57
2022/04/29 01:59:45;;;;;;;;;33.25;30.50;;;;;17.59;44.00;102022.22;2094878;28;47739;-56
2022/04/29 02:00:46;;;;;;;;;32.50;30.25;;;;;17.59;43.70;102024.91;2090959;28;47714;-54
2022/04/29 02:01:47;;;;;;;;;31.00;29.00;;;;;17.59;43.63;102019.53;2091535;28;47944;-56
2022/04/29 02:02:48;;;;;;;;;33.60;30.00;;;;;17.57;43.39;102018.69;2093195;28;47751;-57
2022/04/29 02:03:48;;;;;;;;;32.00;30.50;;;;;17.56;43.61;102014.25;2087230;28;46015;-56
2022/04/29 02:04:49;;;;;;;;;32.75;30.25;;;;;17.57;43.85;102025.88;2094808;28;47729;-56
2022/04/29 02:05:50;;;;;;;;;32.50;31.00;;;;;17.55;43.54;102017.00;2094334;28;47701;-56
2022/04/29 02:06:51;;;;;;;;;41.25;33.50;;;;;17.54;43.60;102017.94;2091830;28;47374;-56
2022/04/29 02:07:51;;;;;;;;;35.20;31.80;;;;;17.54;43.66;102025.97;2096019;28;48014;-57
2022/04/29 02:08:53;;;;;;;;;36.00;32.00;;;;;17.51;43.63;102021.56;2090861;28;47496;-55
2022/04/29 02:09:56;;;;;;;;;38.40;32.40;;;;;17.51;43.49;102018.88;2091388;28;48335;-56
2022/04/29 02:10:56;;;;;;;;;33.40;30.00;;;;;17.51;43.87;102021.56;2096230;28;48243;-55
2022/04/29 02:12:06;;;;;;;;;28.75;28.75;;;;;17.51;43.18;102026.03;2090600;28;47643;-55
2022/04/29 02:13:06;;;;;;;;;31.80;28.60;;;;;17.52;43.64;102031.38;2087912;28;47518;-56
2022/04/29 02:14:07;;;;;;;;;32.00;29.25;;;;;17.50;43.85;102029.66;2088435;28;47274;-56
2022/04/29 02:15:08;;;;;;;;;27.25;26.50;;;;;17.50;43.73;102037.72;2090788;28;47259;-55
2022/04/29 02:16:08;;;;;;;;;32.75;30.50;;;;;17.48;43.48;102032.38;2094231;28;47220;-55
2022/04/29 02:17:10;;;;;;;;;30.25;29.25;;;;;17.47;43.80;102040.50;2094579;28;47660;-54
2022/04/29 02:18:11;;;;;;;;;32.00;29.20;;;;;17.45;43.50;102043.22;2094366;28;47386;-54
2022/04/29 02:19:12;;;;;;;;;36.00;31.50;;;;;17.46;43.79;102041.41;2096697;28;47438;-53
2022/04/29 02:20:12;;;;;;;;;31.80;30.20;;;;;17.44;43.75;102041.47;2093804;28;47938;-56
2022/04/29 02:21:13;;;;;;;;;33.50;30.75;;;;;17.42;44.13;102042.44;2096108;28;47816;-55
2022/04/29 02:22:14;;;;;;;;;31.00;29.25;;;;;17.42;43.91;102050.50;2094673;28;47447;-56
2022/04/29 02:23:14;;;;;;;;;32.75;30.25;;;;;17.40;43.92;102049.63;2091139;28;47726;-56
2022/04/29 02:24:15;;;;;;;;;33.50;31.00;;;;;17.38;43.99;102046.13;2096062;28;48360;-56
2022/04/29 02:25:15;;;;;;;;;33.20;29.40;;;;;17.34;43.88;102043.53;2090379;28;47937;-55
2022/04/29 02:26:16;;;;;;;;;35.00;31.00;;;;;17.33;43.85;102049.81;2088297;28;47710;-56
2022/04/29 02:27:16;;;;;;;;;34.50;32.25;;;;;17.33;43.95;102046.25;2095877;28;47646;-55
2022/04/29 02:28:17;;;;;;;;;32.00;31.00;;;;;17.31;43.89;102043.63;2092068;28;48080;-55
2022/04/29 02:29:18;;;;;;;;;30.50;27.50;;;;;17.30;43.94;102043.66;2094205;28;47374;-53
2022/04/29 02:30:18;;;;;;;;;31.50;30.25;;;;;17.29;43.64;102037.41;2094637;28;47676;-53
2022/04/29 02:31:18;;;;;;;;;34.50;32.25;;;;;17.30;43.99;102041.88;2092100;28;47533;-56
2022/04/29 02:32:19;;;;;;;;;26.50;25.00;;;;;17.30;43.91;102038.31;2096218;28;47818;-53
2022/04/29 02:33:19;;;;;;;;;31.50;28.75;;;;;17.30;43.99;102041.88;2092521;28;47683;-53
2022/04/29 02:34:20;;;;;;;;;36.25;30.25;;;;;17.29;44.09;102041.91;2092664;28;47427;-54
2022/04/29 02:35:20;;;;;;;;;31.75;29.00;;;;;17.29;43.95;102040.09;2096125;28;47738;-53
2022/04/29 02:36:21;;;;;;;;;30.50;28.00;;;;;17.28;44.07;102037.47;2091847;28;47862;-55
2022/04/29 02:37:21;;;;;;;;;31.00;29.75;;;;;17.26;44.15;102039.28;2091641;28;48021;-55
2022/04/29 02:38:23;;;;;;;;;34.00;30.00;;;;;17.24;43.90;102039.34;2093895;28;47801;-54
2022/04/29 02:39:23;;;;;;;;;32.20;29.20;;;;;17.24;43.86;102044.69;2091550;28;47753;-55
2022/04/29 02:40:24;;;;;;;;;31.00;27.50;;;;;17.24;44.45;102043.81;2088027;28;47060;-56
2022/04/29 02:41:24;;;;;;;;;33.00;31.20;;;;;17.22;44.37;102041.19;2092814;28;47525;-56
2022/04/29 02:42:25;;;;;;;;;35.00;30.25;;;;;17.24;44.16;102046.50;2092799;28;47905;-55
2022/04/29 02:43:26;;;;;;;;;34.25;31.00;;;;;17.24;44.25;102044.69;2094352;28;47698;-53
2022/04/29 02:44:26;;;;;;;;;36.75;32.50;;;;;17.24;44.04;102044.69;2098009;28;47524;-56
2022/04/29 02:45:27;;;;;;;;;32.00;29.50;;;;;17.24;44.14;102044.69;2101550;28;47527;-53
2022/04/29 02:46:27;;;;;;;;;28.75;28.50;;;;;17.24;44.31;102038.47;2094693;28;47670;-55
2022/04/29 02:47:28;;;;;;;;;34.50;30.50;;;;;17.24;44.24;102039.34;2092506;28;47813;-56
2022/04/29 02:48:28;;;;;;;;;33.50;31.25;;;;;17.24;43.98;102043.81;2095757;28;47506;-55
2022/04/29 02:49:29;;;;;;;;;36.00;33.00;;;;;17.25;44.07;102046.47;2093197;28;47974;-55
2022/04/29 02:50:30;;;;;;;;;36.00;31.00;;;;;17.24;43.97;102036.66;2092472;28;47718;-56
2022/04/29 02:51:30;;;;;;;;;34.40;31.00;;;;;17.25;44.33;102045.59;2079889;28;48051;-56
2022/04/29 02:52:31;;;;;;;;;36.75;32.00;;;;;17.24;44.21;102047.38;2090451;28;47434;-54
2022/04/29 02:53:31;;;;;;;;;39.00;33.00;;;;;17.23;44.01;102042.94;2094127;28;47793;-54
2022/04/29 02:54:32;;;;;;;;;31.00;28.50;;;;;17.22;44.09;102043.00;2088056;28;47410;-56
2022/04/29 02:55:32;;;;;;;;;37.75;32.00;;;;;17.20;44.27;102042.16;2089856;28;48108;-55
2022/04/29 02:56:33;;;;;;;;;37.50;32.50;;;;;17.20;44.01;102040.34;2095457;28;47902;-55
2022/04/29 02:57:33;;;;;;;;;35.00;30.50;;;;;17.20;44.32;102044.84;2093158;28;47676;-54
2022/04/29 02:58:34;;;;;;;;;34.00;31.50;;;;;17.20;44.19;102043.03;2092184;28;47327;-55
2022/04/29 02:59:34;;;;;;;;;34.25;31.00;;;;;17.20;44.03;102039.47;2079487;28;47476;-55
2022/04/29 03:00:35;;;;;;;;;31.50;29.00;;;;;17.19;44.03;102045.78;2090577;28;47409;-55
2022/04/29 03:01:35;;;;;;;;;35.75;31.75;;;;;17.17;43.95;102037.78;2093606;28;47914;-54
2022/04/29 03:02:36;;;;;;;;;27.75;27.75;;;;;17.16;44.13;102044.06;2094320;28;47338;-54
2022/04/29 03:03:38;;;;;;;;;33.20;31.00;;;;;17.15;44.31;102039.63;2091643;28;48317;-53
2022/04/29 03:04:38;;;;;;;;;34.40;31.00;;;;;17.15;44.30;102041.38;2095139;28;47910;-55
2022/04/29 03:05:39;;;;;;;;;32.50;30.00;;;;;17.13;44.29;102045.91;2093565;28;48141;-55
2022/04/29 03:06:40;;;;;;;;;36.00;30.75;;;;;17.13;44.10;102048.59;2092467;27;47402;-57
2022/04/29 03:07:40;;;;;;;;;30.20;28.60;;;;;17.11;44.43;102045.97;2096597;28;48427;-57
2022/04/29 03:08:41;;;;;;;;;37.50;31.00;;;;;17.10;44.03;102046.00;2092542;28;47436;-57
2022/04/29 03:09:41;;;;;;;;;26.25;23.50;;;;;17.09;44.25;102047.81;2093391;28;47965;-56
2022/04/29 03:10:42;;;;;;;;;35.75;32.00;;;;;17.10;44.27;102043.34;2093950;28;47350;-56
2022/04/29 03:11:42;;;;;;;;;38.25;32.75;;;;;17.09;44.12;102041.56;2090957;28;48432;-54
2022/04/29 03:12:43;;;;;;;;;35.00;31.50;;;;;17.09;44.06;102041.56;2092163;27;47526;-54
2022/04/29 03:13:43;;;;;;;;;34.25;30.75;;;;;17.09;43.97;102038.91;2093568;28;47652;-56
2022/04/29 03:14:44;;;;;;;;;38.00;31.75;;;;;17.07;44.59;102038.94;2088186;28;48262;-56
2022/04/29 03:15:44;;;;;;;;;37.00;32.00;;;;;17.08;44.03;102039.81;2094423;28;47656;-53
2022/04/29 03:16:44;;;;;;;;;34.50;31.75;;;;;17.08;44.35;102037.13;2083579;28;48142;-53
2022/04/29 03:19:06;;;;;;;;;32.40;29.20;;;;;17.08;44.49;102034.44;2096542;28;47482;-57
2022/04/29 03:20:07;;;;;;;;;31.00;29.75;;;;;17.06;44.22;102040.75;2095002;28;48028;-56
2022/04/29 03:21:08;;;;;;;;;36.40;32.00;;;;;17.07;44.68;102036.25;2095372;28;48515;-56
2022/04/29 03:22:08;;;;;;;;;35.00;30.00;;;;;17.05;44.29;102025.56;2080597;28;47744;-55
2022/04/29 03:23:09;;;;;;;;;37.50;32.25;;;;;17.06;44.27;102027.34;2090879;28;47346;-54
2022/04/29 03:24:10;;;;;;;;;37.75;34.25;;;;;17.05;44.10;102032.75;2096361;28;47565;-56
2022/04/29 03:25:10;;;;;;;;;30.75;29.25;;;;;17.04;44.13;102028.31;2091350;28;47816;-55
2022/04/29 03:26:11;;;;;;;;;40.00;33.00;;;;;17.04;44.44;102033.66;2088048;28;47738;-55
2022/04/29 03:27:11;;;;;;;;;35.00;31.75;;;;;17.03;44.61;102029.22;2094764;28;47603;-53
2022/04/29 03:28:11;;;;;;;;;37.50;34.00;;;;;17.03;44.47;102029.22;2088777;28;47560;-56
2022/04/29 03:29:12;;;;;;;;;32.75;31.00;;;;;17.02;44.59;102025.66;2087954;28;47882;-56
2022/04/29 03:30:13;;;;;;;;;36.80;32.20;;;;;17.01;44.37;102031.94;2092741;28;47397;-55
2022/04/29 03:31:13;;;;;;;;;33.00;30.50;;;;;17.02;44.49;102033.72;2091960;28;47431;-55
2022/04/29 03:32:14;;;;;;;;;35.25;31.50;;;;;17.01;44.41;102029.25;2095546;28;47462;-55
2022/04/29 03:33:14;;;;;;;;;35.50;31.50;;;;;17.01;44.63;102034.59;2091441;28;47567;-55
2022/04/29 03:34:15;;;;;;;;;34.50;30.75;;;;;17.00;44.42;102023.91;2093385;28;47742;-55
2022/04/29 03:35:15;;;;;;;;;37.75;32.00;;;;;17.00;44.42;102031.97;2094338;28;47893;-55
2022/04/29 03:36:16;;;;;;;;;34.25;30.00;;;;;16.99;44.33;102028.41;2091332;28;47710;-56
2022/04/29 03:37:16;;;;;;;;;36.75;31.00;;;;;17.00;44.70;102026.59;2091998;28;47430;-55
2022/04/29 03:38:17;;;;;;;;;38.25;34.00;;;;;17.00;44.43;102015.88;2093002;28;48059;-56
2022/04/29 03:39:17;;;;;;;;;35.00;30.50;;;;;17.01;44.76;102025.69;2092087;28;47604;-54
2022/04/29 03:40:21;;;;;;;;;37.25;32.75;;;;;17.02;44.71;102027.44;2078383;28;47479;-56
2022/04/29 03:41:22;;;;;;;;;32.40;30.80;;;;;17.01;44.46;102013.16;2079235;28;47588;-56
2022/04/29 03:42:22;;;;;;;;;31.00;29.50;;;;;17.01;44.58;102015.84;2092875;28;48060;-54
2022/04/29 03:43:22;;;;;;;;;30.25;28.75;;;;;17.01;44.42;102014.94;2084286;28;45616;-56
2022/04/29 03:44:23;;;;;;;;;32.25;29.75;;;;;17.00;44.30;102010.50;2080424;28;48015;-56
2022/04/29 03:45:25;;;;;;;;;34.25;30.25;;;;;17.00;44.38;102015.88;2094653;28;47441;-55
2022/04/29 03:46:26;;;;;;;;;31.80;29.60;;;;;17.00;44.55;102018.56;2093848;28;47969;-57
2022/04/29 03:47:27;;;;;;;;;29.75;29.00;;;;;16.98;44.36;102018.59;2092014;28;47486;-57
2022/04/29 03:48:27;;;;;;;;;35.75;32.25;;;;;16.96;44.54;102015.09;2095918;28;47281;-55
2022/04/29 03:49:37;;;;;;;;;34.75;31.50;;;;;16.95;44.71;102018.69;2092466;28;47638;-57
2022/04/29 03:50:38;;;;;;;;;31.00;29.40;;;;;16.95;44.57;102016.03;2091780;27;47571;-54
2022/04/29 03:51:38;;;;;;;;;33.20;31.20;;;;;16.94;44.23;102003.53;2094998;28;48143;-54
2022/04/29 03:52:50;;;;;;;;;34.50;30.50;;;;;16.94;44.27;102005.34;2091070;28;47846;-55
2022/04/29 03:53:50;;;;;;;;;35.20;30.80;;;;;16.93;44.46;102009.81;2092186;28;47750;-57
2022/04/29 03:54:51;;;;;;;;;34.25;30.00;;;;;16.93;44.34;102009.81;2096220;28;47871;-57
2022/04/29 03:55:51;;;;;;;;;34.50;32.00;;;;;16.93;44.14;102004.47;2092258;28;47613;-57
2022/04/29 03:56:52;;;;;;;;;30.50;29.00;;;;;16.92;44.25;101999.13;2092995;28;47187;-55
2022/04/29 03:57:54;;;;;;;;;33.40;30.60;;;;;16.92;44.71;101999.13;2095340;28;48160;-53
2022/04/29 03:58:54;;;;;;;;;36.80;31.80;;;;;16.92;44.69;102001.81;2092031;28;47071;-54
2022/04/29 03:59:54;;;;;;;;;36.75;31.75;;;;;16.91;44.31;101998.25;2094366;28;47752;-53
2022/04/29 04:00:55;;;;;;;;;34.50;31.00;;;;;16.90;44.60;101999.19;2093809;28;47467;-55
2022/04/29 04:01:55;;;;;;;;;36.00;32.25;;;;;16.90;44.15;101996.50;2092317;28;47791;-55
2022/04/29 04:02:56;;;;;;;;;31.75;28.25;;;;;16.90;44.59;101988.47;2096152;28;47843;-56
2022/04/29 04:03:56;;;;;;;;;33.25;31.00;;;;;16.92;44.32;101991.09;2096269;28;45153;-55
2022/04/29 04:04:57;;;;;;;;;33.50;30.75;;;;;16.93;44.34;101992.84;2092444;28;47740;-54
2022/04/29 04:07:16;;;;;;;;;34.40;31.40;;;;;16.91;44.62;101995.59;2092730;28;47758;-55
2022/04/29 04:08:17;;;;;;;;;30.50;28.75;;;;;16.90;44.24;101999.19;2092028;28;47105;-54
2022/04/29 04:09:22;;;;;;;;;38.25;34.25;;;;;16.89;44.57;101991.16;2095823;28;47664;-54
2022/04/29 04:10:22;;;;;;;;;32.80;31.00;;;;;16.87;44.19;102004.59;2092388;28;47756;-58
2022/04/29 04:11:23;;;;;;;;;33.25;31.25;;;;;16.86;44.23;101996.63;2092786;28;47931;-54
2022/04/29 04:12:27;;;;;;;;;39.25;34.50;;;;;16.85;44.67;101997.53;2093629;28;47570;-50
2022/04/29 04:13:28;;;;;;;;;36.20;32.80;;;;;16.84;44.51;101993.97;2090484;28;48093;-56
2022/04/29 04:14:28;;;;;;;;;35.00;32.00;;;;;16.85;44.21;101997.53;2091044;28;47764;-55
2022/04/29 04:15:29;;;;;;;;;34.75;31.50;;;;;16.83;44.65;101996.69;2094020;28;47999;-57
2022/04/29 04:16:29;;;;;;;;;34.00;30.00;;;;;16.81;44.83;101999.44;2092040;28;47631;-55
2022/04/29 04:17:31;;;;;;;;;33.00;30.25;;;;;16.80;44.47;101999.47;2096056;28;47860;-51
2022/04/29 04:18:32;;;;;;;;;31.80;29.80;;;;;16.78;44.62;101994.16;2094497;28;47414;-55
2022/04/29 04:19:32;;;;;;;;;33.20;29.20;;;;;16.77;44.58;101998.63;2094540;28;47819;-55
2022/04/29 04:20:33;;;;;;;;;36.75;32.75;;;;;16.77;44.84;101997.75;2095984;28;47428;-57
2022/04/29 04:21:33;;;;;;;;;33.00;30.00;;;;;16.76;44.80;101995.97;2094800;28;47582;-57
2022/04/29 04:22:37;;;;;;;;;34.75;31.00;;;;;16.76;44.78;101998.66;2090511;28;47701;-55
2022/04/29 04:23:37;;;;;;;;;34.60;31.00;;;;;16.76;44.56;102001.34;2093469;28;47634;-56
2022/04/29 04:24:38;;;;;;;;;36.00;33.00;;;;;16.75;44.63;102003.13;2094821;28;47969;-54
2022/04/29 04:25:38;;;;;;;;;34.25;31.00;;;;;16.74;45.04;101995.16;2088460;28;47559;-55
2022/04/29 04:26:38;;;;;;;;;38.00;33.25;;;;;16.73;45.00;101996.06;2089424;28;48001;-53
2022/04/29 04:27:40;;;;;;;;;33.00;31.00;;;;;16.71;44.95;101989.88;2094131;28;47473;-53
2022/04/29 04:28:40;;;;;;;;;42.20;33.40;;;;;16.70;44.43;101989.00;2093205;28;46827;-51
2022/04/29 04:29:40;;;;;;;;;36.50;31.50;;;;;16.70;44.78;101993.47;2091460;28;47736;-54
2022/04/29 04:30:41;;;;;;;;;37.00;32.25;;;;;16.68;44.37;101996.19;2095616;28;47178;-54
2022/04/29 04:31:41;;;;;;;;;32.25;30.25;;;;;16.66;44.54;101989.97;2091738;28;47539;-55
2022/04/29 04:32:42;;;;;;;;;33.50;30.00;;;;;16.67;44.73;101999.81;2092258;28;47867;-51
2022/04/29 04:33:42;;;;;;;;;35.00;31.00;;;;;16.67;44.81;102002.47;2094838;28;47554;-56
2022/04/29 04:34:53;;;;;;;;;35.00;31.75;;;;;16.68;44.87;101998.00;2091587;28;47667;-55
2022/04/29 04:35:53;;;;;;;;;34.60;31.20;;;;;16.68;45.14;101998.00;2092780;28;47676;-56
2022/04/29 04:36:53;;;;;;;;;31.75;30.00;;;;;16.66;44.58;101998.00;2093769;28;47513;-55
2022/04/29 04:37:54;;;;;;;;;33.50;32.00;;;;;16.65;44.73;101993.56;2089556;28;47203;-55
2022/04/29 04:38:54;;;;;;;;;37.25;34.00;;;;;16.67;44.97;101993.53;2094122;28;48202;-55
2022/04/29 04:39:58;;;;;;;;;37.00;31.50;;;;;16.66;45.05;101999.81;2090996;28;47619;-57
2022/04/29 04:40:59;;;;;;;;;43.40;34.20;;;;;16.65;44.82;102003.41;2087927;28;46944;-54